Time;durP1;ratioP1;P1;durP2;ratioP2;P2;SDS_P1;SDS_P2;PMS_P1;PMS_P2;Temp;Humidity;BMP_temperature;BMP_pressure;BME280_temperature;BME280_humidity;BME280_pressure;Samples;Min_cycle;Max_cycle;Signal;HPM_P1;HPM_P2
2021/06/28 00:00:23;;;;;;;;;7.00;7.00;;;;;19.87;74.13;100876.25;5100909;27;45449;-80
2021/06/28 00:02:49;;;;;;;;;6.00;5.00;;;;;19.88;74.38;100878.69;5100886;27;45424;-80
2021/06/28 00:05:16;;;;;;;;;6.00;6.00;;;;;19.86;74.25;100871.88;5100885;27;45312;-80
2021/06/28 00:07:43;;;;;;;;;8.00;6.00;;;;;19.81;74.48;100869.88;5099383;27;45347;-79
2021/06/28 00:10:12;;;;;;;;;8.00;7.00;;;;;19.86;74.44;100877.28;5099356;27;46381;-80
2021/06/28 00:12:37;;;;;;;;;8.33;8.33;;;;;19.83;74.54;100875.88;5100586;27;46088;-79
2021/06/28 00:15:06;;;;;;;;;8.67;8.00;;;;;19.85;74.30;100894.50;5100510;27;45322;-80
2021/06/28 00:17:32;;;;;;;;;8.00;8.00;;;;;19.80;74.56;100879.03;5100681;27;45349;-79
2021/06/28 00:19:57;;;;;;;;;6.33;6.33;;;;;19.84;74.28;100888.28;5099147;27;46905;-80
2021/06/28 00:22:23;;;;;;;;;7.67;7.67;;;;;19.82;74.25;100868.84;5099181;27;46374;-79
2021/06/28 00:24:48;;;;;;;;;6.67;6.67;;;;;19.83;74.26;100870.47;5098967;27;45720;-79
2021/06/28 00:27:13;;;;;;;;;7.00;5.67;;;;;19.79;74.56;100866.59;5100810;27;45374;-79
2021/06/28 00:29:39;;;;;;;;;7.33;6.33;;;;;19.84;74.47;100865.91;5097194;27;45316;-79
2021/06/28 00:32:04;;;;;;;;;7.67;7.33;;;;;19.85;74.35;100862.16;5071717;27;46146;-80
2021/06/28 00:34:30;;;;;;;;;7.33;6.67;;;;;19.81;74.49;100854.53;5059811;28;45218;-80
2021/06/28 00:36:57;;;;;;;;;7.67;7.67;;;;;19.76;74.19;100835.56;5059821;28;45267;-79
2021/06/28 00:39:23;;;;;;;;;8.33;7.33;;;;;19.77;74.25;100823.69;5059418;28;45352;-79
2021/06/28 00:41:49;;;;;;;;;9.67;9.67;;;;;19.79;74.75;100816.19;5059444;28;45343;-79
2021/06/28 00:44:14;;;;;;;;;8.33;8.00;;;;;19.81;74.38;100808.69;5059501;28;45330;-79
2021/06/28 00:46:40;;;;;;;;;8.67;8.67;;;;;19.80;74.39;100817.00;5059615;28;45526;-79
2021/06/28 00:49:05;;;;;;;;;9.00;9.00;;;;;19.71;74.39;100799.53;5059169;28;45539;-80
2021/06/28 00:51:31;;;;;;;;;9.67;9.67;;;;;19.81;74.41;100815.94;5058115;28;46178;-79
2021/06/28 00:53:56;;;;;;;;;8.33;8.33;;;;;19.78;74.70;100811.84;5059285;28;45536;-79
2021/06/28 00:56:21;;;;;;;;;8.00;8.00;;;;;19.76;74.76;100815.84;5059586;28;45324;-79
2021/06/28 00:58:48;;;;;;;;;9.00;9.00;;;;;19.71;74.75;100807.63;5058130;28;45458;-80
2021/06/28 01:01:15;;;;;;;;;9.00;9.00;;;;;19.70;74.63;100814.09;5059383;28;45221;-79
2021/06/28 01:03:41;;;;;;;;;8.00;8.00;;;;;19.70;74.63;100820.31;5062221;28;45343;-79
2021/06/28 01:06:10;;;;;;;;;7.67;7.67;;;;;19.68;74.81;100822.41;5079572;27;45352;-79
2021/06/28 01:08:36;;;;;;;;;8.00;8.00;;;;;19.64;74.80;100821.22;5079470;27;45486;-79
2021/06/28 01:11:02;;;;;;;;;8.00;8.00;;;;;19.65;74.78;100817.47;5078146;28;47062;-79
2021/06/28 01:13:33;;;;;;;;;8.33;8.33;;;;;19.64;74.80;100813.16;5079249;27;45276;-79
2021/06/28 01:15:59;;;;;;;;;10.00;8.33;;;;;19.56;75.12;100811.59;5079423;27;45345;-79
2021/06/28 01:18:25;;;;;;;;;8.67;8.33;;;;;19.62;75.19;100823.31;5079272;27;45257;-80
2021/06/28 01:20:51;;;;;;;;;12.33;12.33;;;;;19.57;75.53;100817.84;5079335;27;45325;-79
2021/06/28 01:23:31;;;;;;;;;8.00;8.00;;;;;19.58;75.31;100814.06;5079220;27;45360;-80
2021/06/28 01:25:59;;;;;;;;;9.67;9.67;;;;;19.55;75.31;100816.16;5079575;28;45336;-79
2021/06/28 01:28:26;;;;;;;;;9.33;9.33;;;;;19.61;75.40;100816.31;5077969;28;45339;-79
2021/06/28 01:30:53;;;;;;;;;11.67;11.67;;;;;19.61;75.23;100814.44;5098057;27;48226;-80
2021/06/28 01:33:19;;;;;;;;;9.67;9.67;;;;;19.63;75.11;100806.13;5098354;27;45288;-79
2021/06/28 01:35:45;;;;;;;;;11.00;11.00;;;;;19.64;75.11;100799.66;5062559;27;45449;-79
2021/06/28 01:38:10;;;;;;;;;11.00;11.00;;;;;19.63;75.72;100808.81;5073998;28;45452;-80
2021/06/28 01:40:36;;;;;;;;;10.00;9.00;;;;;19.60;75.23;100795.81;5058738;28;46264;-80
2021/06/28 01:43:03;;;;;;;;;13.00;11.33;;;;;19.67;74.97;100807.28;5076897;28;45394;-80
2021/06/28 01:45:29;;;;;;;;;9.00;8.33;;;;;19.64;75.17;100802.38;5077494;28;45289;-79
2021/06/28 01:47:57;;;;;;;;;11.00;11.00;;;;;19.66;75.03;100801.06;5081090;28;45878;-80
2021/06/28 01:50:25;;;;;;;;;10.00;10.00;;;;;19.66;75.43;100797.53;5082340;27;45386;-79
2021/06/28 01:52:51;;;;;;;;;8.00;8.00;;;;;19.66;75.17;100790.28;5082259;27;45318;-79
2021/06/28 01:55:18;;;;;;;;;9.67;9.67;;;;;19.64;75.18;100778.09;5081241;28;45370;-79
2021/06/28 01:57:49;;;;;;;;;13.00;12.00;;;;;19.65;75.13;100787.81;5082343;27;45376;-79
2021/06/28 02:00:18;;;;;;;;;9.00;9.00;;;;;19.64;75.08;100791.59;5082117;27;46178;-80
2021/06/28 02:03:04;;;;;;;;;12.33;12.00;;;;;19.62;75.45;100801.75;5081067;28;45290;-81
2021/06/28 02:05:32;;;;;;;;;9.33;9.00;;;;;19.64;75.67;100796.97;5066476;27;45236;-80
2021/06/28 02:07:59;;;;;;;;;11.00;10.33;;;;;19.61;75.65;100794.75;5061649;28;45309;-79
2021/06/28 02:10:25;;;;;;;;;11.67;11.00;;;;;19.62;75.67;100804.47;5061855;28;45342;-80
2021/06/28 02:12:51;;;;;;;;;9.33;8.00;;;;;19.59;75.55;100818.41;5060379;28;45405;-81
2021/06/28 02:15:31;;;;;;;;;9.00;9.00;;;;;19.59;75.65;100823.78;5060754;28;45677;-80
2021/06/28 02:17:58;;;;;;;;;8.00;8.00;;;;;19.59;76.21;100816.53;5077203;28;46090;-81
2021/06/28 02:20:24;;;;;;;;;9.67;9.67;;;;;19.59;75.81;100815.72;5060407;28;46057;-82
2021/06/28 02:22:50;;;;;;;;;10.00;10.00;;;;;19.58;76.14;100806.81;5061497;28;45321;-82
2021/06/28 02:25:18;;;;;;;;;11.67;11.67;;;;;19.57;75.93;100812.44;5077531;28;45319;-82
2021/06/28 02:27:44;;;;;;;;;10.00;10.00;;;;;19.52;76.13;100811.25;5061557;28;45511;-81
2021/06/28 02:30:12;;;;;;;;;10.33;10.33;;;;;19.49;76.10;100800.94;5074343;27;48440;-82
2021/06/28 02:32:39;;;;;;;;;9.67;9.00;;;;;19.52;75.91;100796.97;5101092;27;45356;-82
2021/06/28 02:35:06;;;;;;;;;8.00;8.00;;;;;19.54;76.07;100809.16;5102393;27;45359;-82
2021/06/28 02:37:32;;;;;;;;;9.33;8.00;;;;;19.52;76.02;100811.25;5100567;27;47466;-82
2021/06/28 02:39:58;;;;;;;;;10.00;10.00;;;;;19.50;76.29;100805.28;5102218;27;46696;-83
2021/06/28 02:42:23;;;;;;;;;8.00;8.00;;;;;19.47;76.11;100802.22;5102057;27;45344;-82
2021/06/28 02:44:49;;;;;;;;;10.33;10.00;;;;;19.45;75.92;100813.22;5102362;27;45364;-83
2021/06/28 02:47:14;;;;;;;;;7.33;7.33;;;;;19.48;75.87;100820.84;5102115;27;45411;-83
2021/06/28 02:49:39;;;;;;;;;9.00;9.00;;;;;19.48;76.33;100817.34;5072924;27;45374;-82
2021/06/28 02:52:05;;;;;;;;;8.67;8.67;;;;;19.42;75.85;100800.22;5059865;28;46025;-83
2021/06/28 02:54:31;;;;;;;;;8.33;8.33;;;;;19.45;75.94;100804.34;5060353;28;45284;-83
2021/06/28 02:56:56;;;;;;;;;8.00;7.00;;;;;19.43;75.94;100799.97;5061256;28;45374;-82
2021/06/28 02:59:21;;;;;;;;;7.33;7.33;;;;;19.39;76.11;100797.97;5061181;28;46343;-83
2021/06/28 03:01:47;;;;;;;;;8.00;8.00;;;;;19.38;75.76;100812.53;5061188;28;45271;-82
2021/06/28 03:04:13;;;;;;;;;7.00;7.00;;;;;19.38;75.72;100801.75;5063565;28;45299;-83
2021/06/28 03:06:38;;;;;;;;;6.67;6.33;;;;;19.33;75.92;100810.50;5079846;28;46875;-83
2021/06/28 03:09:03;;;;;;;;;7.67;7.67;;;;;19.32;76.08;100806.19;5081177;27;45312;-83
2021/06/28 03:11:29;;;;;;;;;6.00;6.00;;;;;19.18;76.02;100801.00;5081337;27;45234;-82
2021/06/28 03:13:54;;;;;;;;;9.00;9.00;;;;;19.26;75.95;100842.97;5081425;27;45348;-82
2021/06/28 03:16:20;;;;;;;;;6.00;6.00;;;;;19.23;76.28;100850.66;5061777;27;45542;-81
2021/06/28 03:18:46;;;;;;;;;6.00;6.00;;;;;19.18;76.07;100838.72;5060820;28;45223;-82
2021/06/28 03:21:12;;;;;;;;;7.00;7.00;;;;;19.13;75.91;100813.53;5060847;28;45335;-81
2021/06/28 03:23:39;;;;;;;;;6.00;5.00;;;;;19.12;76.37;100812.69;5060736;28;45430;-82
2021/06/28 03:26:05;;;;;;;;;6.00;6.00;;;;;19.13;76.22;100813.53;5060746;28;45476;-81
2021/06/28 03:28:31;;;;;;;;;7.00;7.00;;;;;19.14;76.23;100804.38;5060694;28;45646;-81
2021/06/28 03:30:57;;;;;;;;;6.00;6.00;;;;;19.10;76.29;100781.66;5086806;27;45294;-81
2021/06/28 03:33:23;;;;;;;;;5.33;5.33;;;;;19.10;76.24;100793.28;5101558;27;45257;-81
2021/06/28 03:35:48;;;;;;;;;4.00;2.00;;;;;19.07;75.20;100791.00;5085835;27;45349;-81
2021/06/28 03:38:14;;;;;;;;;4.00;4.00;;;;;19.03;75.71;100776.34;5080451;27;46251;-80
2021/06/28 03:40:39;;;;;;;;;3.33;3.33;;;;;18.95;75.73;100760.50;5080830;27;45651;-81
2021/06/28 03:43:08;;;;;;;;;3.00;3.00;;;;;18.95;75.65;100760.50;5080970;27;45346;-81
2021/06/28 03:45:34;;;;;;;;;4.00;4.00;;;;;18.91;76.02;100755.59;5080774;27;45413;-81
2021/06/28 03:48:00;;;;;;;;;3.00;3.00;;;;;18.90;76.07;100753.13;5080443;27;46111;-81
2021/06/28 03:50:25;;;;;;;;;7.00;5.00;;;;;18.84;76.02;100754.03;5079918;28;45309;-82
2021/06/28 03:52:51;;;;;;;;;4.67;4.67;;;;;18.89;76.31;100759.56;5080649;27;45389;-81
2021/06/28 03:55:17;;;;;;;;;3.00;3.00;;;;;18.90;75.80;100758.50;5080632;27;45342;-81
2021/06/28 03:57:42;;;;;;;;;4.33;3.67;;;;;18.85;75.56;100755.69;5080406;28;45386;-81
2021/06/28 04:00:12;;;;;;;;;5.00;3.00;;;;;18.87;75.75;100784.03;5079038;28;45272;-81
2021/06/28 04:02:40;;;;;;;;;3.00;3.00;;;;;18.88;76.06;100809.06;5062911;27;45327;-81
2021/06/28 04:05:06;;;;;;;;;4.33;4.00;;;;;18.83;76.14;100822.41;5059911;28;45561;-81
2021/06/28 04:07:32;;;;;;;;;3.00;3.00;;;;;18.81;75.45;100822.63;5059731;28;45434;-81
2021/06/28 04:09:59;;;;;;;;;3.00;3.00;;;;;18.82;76.24;100829.66;5059020;28;45271;-81
2021/06/28 04:12:24;;;;;;;;;3.00;3.00;;;;;18.79;75.86;100833.63;5060230;28;45339;-81
2021/06/28 04:14:49;;;;;;;;;3.00;2.00;;;;;18.81;76.06;100838.78;5059944;28;45282;-81
2021/06/28 04:17:15;;;;;;;;;2.00;1.67;;;;;18.79;76.17;100820.16;5058582;28;47009;-80
2021/06/28 04:19:40;;;;;;;;;4.67;3.00;;;;;18.74;76.24;100789.59;5060025;28;45220;-81
2021/06/28 04:22:06;;;;;;;;;4.00;3.33;;;;;18.73;75.76;100825.63;5060083;28;45224;-81
2021/06/28 04:24:31;;;;;;;;;3.00;3.00;;;;;18.67;76.02;100844.34;5059677;28;45339;-82
2021/06/28 04:26:57;;;;;;;;;4.33;4.00;;;;;18.65;76.25;100843.72;5058442;28;47248;-81
2021/06/28 04:29:22;;;;;;;;;3.00;3.00;;;;;18.67;76.38;100824.66;5061096;27;45314;-82
2021/06/28 04:31:48;;;;;;;;;4.33;4.00;;;;;18.70;76.16;100824.22;5077330;27;45475;-82
2021/06/28 04:34:13;;;;;;;;;3.00;3.00;;;;;18.69;76.25;100833.34;5058428;28;45511;-82
2021/06/28 04:36:38;;;;;;;;;3.00;3.00;;;;;18.68;76.39;100835.22;5059487;28;45415;-79
2021/06/28 04:39:04;;;;;;;;;3.00;2.67;;;;;18.68;76.10;100824.44;5059541;28;45396;-79
2021/06/28 04:41:29;;;;;;;;;4.00;4.00;;;;;18.68;76.23;100821.75;5059861;28;45238;-79
2021/06/28 04:43:55;;;;;;;;;4.67;4.00;;;;;18.69;76.25;100838.72;5059617;28;45528;-78
2021/06/28 04:46:20;;;;;;;;;3.67;3.67;;;;;18.67;76.96;100836.25;5059627;28;46255;-77
2021/06/28 04:48:45;;;;;;;;;4.00;3.00;;;;;18.63;76.59;100834.25;5066154;28;45336;-77
2021/06/28 04:51:11;;;;;;;;;5.00;3.00;;;;;18.60;76.67;100829.31;5079953;27;45309;-77
2021/06/28 04:53:37;;;;;;;;;5.33;4.67;;;;;18.60;76.88;100832.00;5079627;27;45353;-77
2021/06/28 04:56:04;;;;;;;;;4.00;3.67;;;;;18.56;76.76;100837.03;5079821;27;45340;-77
2021/06/28 04:58:30;;;;;;;;;3.33;3.33;;;;;18.59;76.68;100836.59;5074585;28;45420;-77
2021/06/28 05:00:56;;;;;;;;;5.33;5.33;;;;;18.57;76.83;100830.59;5059555;28;45189;-77
2021/06/28 05:03:21;;;;;;;;;4.67;3.67;;;;;18.59;76.32;100841.13;5059421;28;45415;-76
2021/06/28 05:05:46;;;;;;;;;4.00;4.00;;;;;18.59;76.98;100843.81;5075026;28;47307;-77
2021/06/28 05:08:12;;;;;;;;;3.33;3.00;;;;;18.58;76.73;100850.25;5059080;28;45345;-77
2021/06/28 05:10:37;;;;;;;;;4.33;4.33;;;;;18.57;77.02;100856.66;5060524;28;45307;-77
2021/06/28 05:13:03;;;;;;;;;3.67;2.67;;;;;18.53;76.89;100870.56;5058108;28;46209;-76
2021/06/28 05:15:28;;;;;;;;;5.00;4.00;;;;;18.50;77.56;100854.88;5078044;28;46013;-76
2021/06/28 05:17:53;;;;;;;;;4.00;2.67;;;;;18.51;77.28;100850.31;5082492;27;45275;-77
2021/06/28 05:20:19;;;;;;;;;6.67;5.00;;;;;18.58;77.36;100872.59;5083949;27;45281;-76
2021/06/28 05:22:44;;;;;;;;;2.00;2.00;;;;;18.60;77.20;100875.91;5081624;28;45450;-76
2021/06/28 05:25:11;;;;;;;;;3.00;2.67;;;;;18.59;77.53;100881.50;5082837;27;46160;-76
2021/06/28 05:27:36;;;;;;;;;3.00;3.00;;;;;18.60;77.83;100885.84;5081864;28;45342;-76
2021/06/28 05:30:07;;;;;;;;;4.33;4.33;;;;;18.61;77.35;100876.69;5089746;27;45309;-75
2021/06/28 05:32:32;;;;;;;;;4.33;4.33;;;;;18.59;77.56;100852.72;5094919;27;45454;-77
2021/06/28 05:34:57;;;;;;;;;4.33;4.00;;;;;18.62;77.11;100871.09;5083256;28;48402;-76
2021/06/28 05:37:23;;;;;;;;;5.00;3.00;;;;;18.64;77.17;100878.94;5083477;27;45395;-77
2021/06/28 05:39:48;;;;;;;;;3.00;3.00;;;;;18.61;77.48;100868.63;5082906;27;45384;-77
2021/06/28 05:42:14;;;;;;;;;6.00;4.67;;;;;18.65;77.76;100859.09;5082725;27;45369;-77
2021/06/28 05:44:40;;;;;;;;;4.33;4.00;;;;;18.68;77.29;100872.88;5083195;27;45441;-78
2021/06/28 05:47:07;;;;;;;;;4.00;4.00;;;;;18.65;77.09;100880.63;5083298;27;45596;-78
2021/06/28 05:49:35;;;;;;;;;4.33;4.33;;;;;18.60;77.27;100856.22;5067492;27;45460;-75
2021/06/28 05:52:00;;;;;;;;;4.33;4.33;;;;;18.59;77.77;100838.44;5062850;28;45211;-77
2021/06/28 05:54:26;;;;;;;;;4.00;4.00;;;;;18.59;77.20;100839.28;5072161;28;45416;-78
2021/06/28 05:56:51;;;;;;;;;3.00;3.00;;;;;18.60;77.39;100834.69;5071506;27;45402;-78
2021/06/28 05:59:16;;;;;;;;;4.00;4.00;;;;;18.61;77.08;100820.19;5073808;28;45610;-79
2021/06/28 06:01:42;;;;;;;;;3.00;3.00;;;;;18.65;77.62;100810.63;5072644;28;45442;-79
2021/06/28 06:04:13;;;;;;;;;3.67;3.67;;;;;18.68;77.66;100807.50;5067368;28;46193;-76
2021/06/28 06:06:38;;;;;;;;;5.33;4.00;;;;;18.68;77.13;100819.06;5062761;28;45323;-77
2021/06/28 06:09:04;;;;;;;;;6.67;6.00;;;;;18.73;77.43;100839.09;5063225;28;45245;-76
2021/06/28 06:11:29;;;;;;;;;5.00;5.00;;;;;18.65;77.52;100816.81;5067963;28;45145;-79
2021/06/28 06:13:55;;;;;;;;;4.67;4.67;;;;;18.71;77.85;100807.03;5069645;28;45537;-78
2021/06/28 06:16:20;;;;;;;;;3.67;3.67;;;;;18.75;77.58;100810.91;5064269;28;45215;-79
2021/06/28 06:18:46;;;;;;;;;2.00;2.00;;;;;18.75;76.99;100824.38;5062079;28;45324;-80
2021/06/28 06:21:11;;;;;;;;;5.00;5.00;;;;;18.70;77.55;100828.78;5069318;28;45242;-81
2021/06/28 06:23:37;;;;;;;;;3.00;3.00;;;;;18.81;77.43;100852.25;5071772;28;45346;-84
2021/06/28 06:26:02;;;;;;;;;5.00;4.00;;;;;18.83;77.26;100849.31;5070057;28;45317;-84
2021/06/28 06:28:28;;;;;;;;;5.00;5.00;;;;;18.84;77.25;100848.28;5071197;27;45237;-83
2021/06/28 06:30:53;;;;;;;;;2.67;2.67;;;;;18.90;77.35;100869.75;5074942;27;45483;-81
2021/06/28 06:33:21;;;;;;;;;5.00;5.00;;;;;18.87;77.16;100855.91;5063847;28;45340;-82
2021/06/28 06:35:46;;;;;;;;;5.33;4.00;;;;;18.96;77.19;100873.38;5060148;28;45335;-81
2021/06/28 06:38:12;;;;;;;;;4.00;4.00;;;;;18.98;77.24;100886.63;5061171;28;45881;-82
2021/06/28 06:40:37;;;;;;;;;4.33;4.00;;;;;18.96;77.19;100884.16;5061301;28;45538;-82
2021/06/28 06:43:03;;;;;;;;;4.33;4.33;;;;;18.96;76.72;100886.03;5061402;28;45982;-82
2021/06/28 06:45:28;;;;;;;;;5.67;5.33;;;;;19.01;77.32;100888.88;5061332;28;45148;-82
2021/06/28 06:47:54;;;;;;;;;6.00;5.00;;;;;18.99;77.23;100899.88;5061645;28;45264;-81
2021/06/28 06:50:19;;;;;;;;;7.00;5.00;;;;;19.03;76.91;100922.59;5076140;28;47043;-82
2021/06/28 06:52:48;;;;;;;;;5.00;5.00;;;;;19.00;77.21;100916.81;5076575;28;46018;-80
2021/06/28 06:55:15;;;;;;;;;4.00;4.00;;;;;19.01;77.38;100913.09;5061152;28;45305;-80
2021/06/28 06:57:41;;;;;;;;;7.67;6.67;;;;;19.02;77.55;100910.19;5061343;28;45350;-80
2021/06/28 07:00:13;;;;;;;;;8.00;7.33;;;;;19.02;77.24;100914.75;5061164;28;45304;-80
2021/06/28 07:02:39;;;;;;;;;7.33;7.33;;;;;18.99;77.46;100896.34;5061098;28;45910;-80
2021/06/28 07:05:05;;;;;;;;;6.00;5.00;;;;;19.01;77.07;100896.94;5071355;28;45734;-80
2021/06/28 07:07:31;;;;;;;;;6.00;6.00;;;;;19.00;76.46;100911.44;5060959;28;45431;-80
2021/06/28 07:09:56;;;;;;;;;5.00;4.00;;;;;18.97;76.82;100888.50;5060823;28;45415;-83
2021/06/28 07:12:22;;;;;;;;;7.00;7.00;;;;;18.99;76.21;100882.88;5061044;28;45391;-82
2021/06/28 07:14:47;;;;;;;;;7.00;7.00;;;;;18.99;76.83;100901.72;5063669;28;45298;-83
2021/06/28 07:17:12;;;;;;;;;8.00;7.00;;;;;19.00;77.08;100906.06;5079997;28;45286;-82
2021/06/28 07:19:38;;;;;;;;;5.33;5.33;;;;;19.08;76.44;100908.47;5081131;27;45378;-82
2021/06/28 07:22:03;;;;;;;;;6.33;6.00;;;;;19.10;76.99;100890.22;5077141;28;46318;-80
2021/06/28 07:24:29;;;;;;;;;6.00;6.00;;;;;19.11;76.49;100891.88;5080251;27;45350;-82
2021/06/28 07:26:54;;;;;;;;;8.00;7.00;;;;;19.13;76.72;100900.53;5081442;27;45395;-80
2021/06/28 07:29:21;;;;;;;;;6.67;6.67;;;;;19.13;76.46;100915.88;5080946;27;45294;-82
2021/06/28 07:31:47;;;;;;;;;7.67;6.67;;;;;19.11;76.66;100926.06;5100940;27;46363;-82
2021/06/28 07:34:12;;;;;;;;;10.00;7.33;;;;;19.07;76.52;100922.97;5085790;27;45313;-82
2021/06/28 07:36:37;;;;;;;;;7.00;6.33;;;;;19.05;76.59;100914.28;5060595;28;45480;-83
2021/06/28 07:39:04;;;;;;;;;8.67;8.67;;;;;19.02;76.48;100906.66;5060245;28;45354;-81
2021/06/28 07:41:31;;;;;;;;;8.00;6.00;;;;;18.99;76.74;100909.81;5067218;28;46417;-82
2021/06/28 07:43:59;;;;;;;;;7.00;7.00;;;;;18.98;76.43;100925.16;5069590;28;45465;-83
2021/06/28 07:46:25;;;;;;;;;9.00;8.00;;;;;19.00;76.73;100928.44;5079137;28;45265;-84
2021/06/28 07:48:50;;;;;;;;;8.00;8.00;;;;;18.99;77.06;100924.09;5095677;27;47133;-84
2021/06/28 07:51:16;;;;;;;;;10.00;10.00;;;;;19.02;76.99;100928.22;5079213;27;46093;-84
2021/06/28 07:53:41;;;;;;;;;8.33;8.00;;;;;19.09;77.54;100920.88;5080317;27;45137;-81
2021/06/28 07:56:19;;;;;;;;;8.00;7.00;;;;;19.17;77.16;100917.06;5079253;28;45236;-79
2021/06/28 07:58:49;;;;;;;;;9.33;9.33;;;;;19.20;77.00;100907.69;5079923;27;45433;-81
2021/06/28 08:01:17;;;;;;;;;11.00;11.00;;;;;19.31;77.06;100917.72;5075314;28;46178;-80
2021/06/28 08:03:47;;;;;;;;;11.33;10.33;;;;;19.37;76.91;100921.38;5060170;28;45423;-81
2021/06/28 08:06:16;;;;;;;;;10.00;9.33;;;;;19.36;76.52;100917.03;5069827;28;45376;-81
2021/06/28 08:08:42;;;;;;;;;10.33;10.33;;;;;19.39;75.88;100919.25;5066163;28;45268;-81
2021/06/28 08:11:09;;;;;;;;;10.00;9.00;;;;;19.42;76.01;100921.47;5060771;27;46240;-82
2021/06/28 08:13:43;;;;;;;;;8.00;7.67;;;;;19.44;75.91;100919.41;5066139;28;45861;-81
2021/06/28 08:16:09;;;;;;;;;9.00;7.00;;;;;19.40;75.45;100910.13;5075369;28;45335;-80
2021/06/28 08:18:36;;;;;;;;;6.00;6.00;;;;;19.58;76.00;100932.69;5069530;28;46384;-79
2021/06/28 08:21:03;;;;;;;;;5.67;5.67;;;;;19.62;74.19;100926.59;5059870;28;45445;-80
2021/06/28 08:23:28;;;;;;;;;4.00;4.00;;;;;19.63;75.66;100922.84;5059524;28;45286;-80
2021/06/28 08:25:54;;;;;;;;;4.00;4.00;;;;;19.69;74.20;100918.38;5060107;28;45197;-81
2021/06/28 08:28:19;;;;;;;;;5.00;5.00;;;;;19.72;74.52;100917.94;5060026;28;45228;-80
2021/06/28 08:30:44;;;;;;;;;4.33;4.00;;;;;19.84;74.58;100922.53;5083834;27;46426;-79
2021/06/28 08:33:10;;;;;;;;;4.00;4.00;;;;;19.86;75.60;100917.72;5100721;27;45223;-80
2021/06/28 08:35:35;;;;;;;;;4.00;4.00;;;;;19.98;75.90;100928.53;5099442;27;45257;-80
2021/06/28 08:38:03;;;;;;;;;2.67;2.67;;;;;20.06;74.46;100923.63;5100192;27;45279;-80
2021/06/28 08:40:29;;;;;;;;;7.33;7.33;;;;;20.16;74.90;100930.31;5096894;27;45408;-81
2021/06/28 08:42:54;;;;;;;;;3.67;3.67;;;;;20.18;75.37;100920.94;5075857;28;45266;-79
2021/06/28 08:45:22;;;;;;;;;4.00;4.00;;;;;20.29;74.00;100919.31;5069362;27;45315;-79
2021/06/28 08:47:48;;;;;;;;;4.00;3.00;;;;;20.44;73.48;100926.09;5069910;28;45330;-78
2021/06/28 08:50:13;;;;;;;;;3.33;2.67;;;;;20.55;71.97;100925.28;5076397;27;46242;-79
2021/06/28 08:52:42;;;;;;;;;3.67;2.00;;;;;20.71;72.17;100922.09;5059908;27;45433;-79
2021/06/28 08:55:08;;;;;;;;;3.67;3.67;;;;;20.78;73.35;100923.59;5059767;28;45942;-78
2021/06/28 08:57:35;;;;;;;;;3.00;3.00;;;;;20.79;73.58;100925.22;5059444;28;45416;-78
2021/06/28 09:00:00;;;;;;;;;4.67;3.00;;;;;20.89;73.02;100935.41;5059252;28;46268;-79
2021/06/28 09:02:25;;;;;;;;;2.67;2.33;;;;;20.94;70.59;100932.84;5059420;28;45238;-79
2021/06/28 09:05:06;;;;;;;;;2.33;2.33;;;;;21.05;70.46;100925.78;5069666;28;45272;-78
2021/06/28 09:07:31;;;;;;;;;2.67;2.33;;;;;21.16;71.43;100932.19;5063042;27;45246;-79
2021/06/28 09:09:57;;;;;;;;;5.00;5.00;;;;;21.25;71.65;100932.59;5059232;28;45330;-80
2021/06/28 09:12:22;;;;;;;;;3.00;3.00;;;;;21.30;72.10;100931.88;5058167;28;45373;-81
2021/06/28 09:14:58;;;;;;;;;1.67;1.67;;;;;21.35;70.29;100936.56;5059456;28;45362;-80
2021/06/28 09:17:43;;;;;;;;;1.67;1.67;;;;;21.40;69.90;100937.47;5063747;28;45660;-81
2021/06/28 09:20:13;;;;;;;;;4.00;2.67;;;;;21.43;70.41;100936.19;5079082;27;45414;-82
2021/06/28 09:22:40;;;;;;;;;2.00;2.00;;;;;21.48;70.20;100948.97;5079165;27;45583;-82
2021/06/28 09:25:08;;;;;;;;;1.00;1.00;;;;;21.55;70.46;100953.16;5079570;27;45232;-82
2021/06/28 09:27:42;;;;;;;;;3.00;3.00;;;;;21.53;69.13;100949.06;5061856;27;45427;-82
2021/06/28 09:30:16;;;;;;;;;2.00;2.00;;;;;;;;5072671;27;45859;-81
2021/06/28 09:32:51;;;;;;;;;4.00;4.00;;;;;21.51;71.26;100945.78;5099692;27;45249;-81
2021/06/28 09:35:31;;;;;;;;;3.00;3.00;;;;;21.49;71.39;100948.72;5098621;27;45452;-82
2021/06/28 09:38:01;;;;;;;;;2.67;2.67;;;;;21.53;69.12;100939.06;5095970;27;46348;-80
2021/06/28 09:40:26;;;;;;;;;2.00;1.00;;;;;21.66;67.96;100945.22;5061816;27;46283;-79
2021/06/28 09:42:53;;;;;;;;;0.67;0.67;;;;;21.79;68.93;100947.63;5074396;28;45264;-82
2021/06/28 09:45:21;;;;;;;;;1.33;1.33;;;;;21.79;67.12;100944.13;5059181;28;45348;-81
2021/06/28 09:47:49;;;;;;;;;1.00;1.00;;;;;21.82;70.38;100949.84;5058852;28;45323;-80
2021/06/28 09:50:18;;;;;;;;;1.00;1.00;;;;;21.77;67.66;100944.38;5058584;28;45277;-82
2021/06/28 09:52:53;;;;;;;;;1.00;1.00;;;;;21.99;68.04;100954.47;5058486;28;45407;-79
2021/06/28 09:55:21;;;;;;;;;0.33;0.33;;;;;22.12;67.30;100952.50;5059066;28;45558;-79
2021/06/28 09:58:08;;;;;;;;;1.67;1.67;;;;;22.27;69.05;100954.63;5062085;28;45315;-81
2021/06/28 10:00:55;;;;;;;;;2.00;2.00;;;;;22.37;66.61;100962.88;5069617;28;45977;-79
2021/06/28 10:03:34;;;;;;;;;1.33;1.33;;;;;22.33;64.71;100956.34;5085386;27;46244;-80
2021/06/28 10:06:26;;;;;;;;;2.00;1.67;;;;;22.38;65.60;100958.28;5073331;27;45356;-80
2021/06/28 10:09:03;;;;;;;;;1.00;1.00;;;;;22.43;66.32;100959.19;5070944;27;45519;-80
2021/06/28 10:11:29;;;;;;;;;2.00;1.00;;;;;22.53;64.88;100960.38;5071605;28;46259;-81
2021/06/28 10:13:57;;;;;;;;;0.00;0.00;;;;;22.68;66.06;100954.38;5066276;28;45466;-81
2021/06/28 10:16:25;;;;;;;;;0.00;0.00;;;;;22.83;65.81;100957.28;5072721;28;45279;-81
2021/06/28 10:18:52;;;;;;;;;0.33;0.00;;;;;22.91;66.64;100963.34;5075804;28;45451;-82
2021/06/28 10:21:18;;;;;;;;;1.00;1.00;;;;;22.90;62.76;100967.94;5061738;28;45291;-82
2021/06/28 10:23:43;;;;;;;;;1.33;1.33;;;;;22.93;65.43;100967.41;5060440;28;45242;-83
2021/06/28 10:26:09;;;;;;;;;1.00;1.00;;;;;23.00;65.95;100978.09;5060602;28;45393;-81
2021/06/28 10:28:36;;;;;;;;;1.00;1.00;;;;;23.08;65.99;100974.13;5061575;28;45460;-80
2021/06/28 10:31:08;;;;;;;;;0.00;0.00;;;;;23.20;64.74;100965.84;5095135;27;47329;-81
2021/06/28 10:33:35;;;;;;;;;0.33;0.33;;;;;23.40;64.67;100973.41;5097073;27;45407;-84
2021/06/28 10:36:07;;;;;;;;;1.00;1.00;;;;;23.58;62.16;100971.41;5080341;28;45306;-78
2021/06/28 10:38:45;;;;;;;;;1.00;0.67;;;;;23.63;62.88;100971.47;5080092;28;47322;-81
2021/06/28 10:41:11;;;;;;;;;1.00;1.00;;;;;23.84;64.59;100960.78;5080489;28;47569;-80
2021/06/28 10:43:39;;;;;;;;;1.00;1.00;;;;;23.93;64.07;100969.25;5097430;27;45289;-81
2021/06/28 10:46:28;;;;;;;;;1.00;1.00;;;;;23.95;62.58;100964.41;5081930;28;45222;-80
2021/06/28 10:48:53;;;;;;;;;2.33;1.00;;;;;23.94;61.46;100958.16;5081175;27;45380;-81
2021/06/28 10:51:19;;;;;;;;;1.00;1.00;;;;;24.04;61.90;100959.31;5081325;27;45407;-81
2021/06/28 10:53:54;;;;;;;;;1.33;1.00;;;;;24.08;60.88;100961.25;5081523;27;45314;-81
2021/06/28 10:56:29;;;;;;;;;0.33;0.00;;;;;24.13;62.35;100955.06;5081769;28;45418;-82
2021/06/28 10:59:03;;;;;;;;;0.00;0.00;;;;;24.18;62.76;100960.50;5061027;28;45592;-79
2021/06/28 11:01:36;;;;;;;;;0.33;0.33;;;;;24.16;62.32;100961.88;5061126;28;45457;-79
2021/06/28 11:04:05;;;;;;;;;1.00;1.00;;;;;24.21;60.33;100941.00;5061330;28;45434;-78
2021/06/28 11:06:30;;;;;;;;;1.00;1.00;;;;;24.23;59.07;100938.00;5061424;28;45398;-80
2021/06/28 11:09:00;;;;;;;;;1.00;0.67;;;;;24.33;59.62;100934.53;5059563;28;45853;-80
2021/06/28 11:11:44;;;;;;;;;0.00;0.00;;;;;24.43;58.97;100941.94;5060175;28;46257;-80
2021/06/28 11:14:18;;;;;;;;;0.00;0.00;;;;;24.44;60.41;100938.97;5060958;28;45292;-80
2021/06/28 11:17:10;;;;;;;;;1.00;1.00;;;;;24.45;60.26;100943.31;5061235;28;45289;-80
2021/06/28 11:22:41;;;;;;;;;0.00;0.00;;;;;24.55;58.76;100931.69;5059698;28;45971;-81
2021/06/28 11:25:13;;;;;;;;;1.00;0.00;;;;;24.67;58.47;100939.63;5060737;28;45360;-82
2021/06/28 11:27:42;;;;;;;;;1.00;1.00;;;;;24.79;59.01;100931.25;5061012;28;45504;-81